Time;durP1;ratioP1;P1;durP2;ratioP2;P2;SDS_P1;SDS_P2;PMS_P1;PMS_P2;Temp;Humidity;BMP_temperature;BMP_pressure;BME280_temperature;BME280_humidity;BME280_pressure;Samples;Min_cycle;Max_cycle;Signal;HPM_P1;HPM_P2
2022/09/20 00:00:38;;;;;;;2.60;1.77;;;7.70;99.90;;;;;;5053532;23;20226;-95
2022/09/20 00:03:05;;;;;;;2.45;2.17;;;7.70;99.90;;;;;;5043654;28;20205;-91
2022/09/20 00:05:34;;;;;;;2.50;1.85;;;7.70;99.90;;;;;;5052820;28;20215;-92
2022/09/20 00:08:01;;;;;;;3.75;2.50;;;7.70;99.90;;;;;;5053431;28;20212;-91
2022/09/20 00:10:29;;;;;;;2.47;1.95;;;7.70;99.90;;;;;;5053089;28;20213;-92
2022/09/20 00:12:58;;;;;;;1.80;1.70;;;7.70;99.90;;;;;;5053216;28;20207;-91
2022/09/20 00:15:24;;;;;;;2.42;2.10;;;7.70;99.90;;;;;;5053348;28;20675;-92
2022/09/20 00:17:51;;;;;;;2.20;2.00;;;7.70;99.90;;;;;;5053542;28;20291;-92
2022/09/20 00:20:18;;;;;;;2.20;2.00;;;7.80;99.90;;;;;;5056867;28;20673;-92
2022/09/20 00:22:48;;;;;;;3.08;2.25;;;7.80;99.90;;;;;;5057079;28;20588;-92
2022/09/20 00:25:15;;;;;;;2.40;2.20;;;7.80;99.90;;;;;;5057281;28;20243;-92
2022/09/20 00:27:42;;;;;;;2.45;1.48;;;7.80;99.90;;;;;;5057415;28;20206;-92
2022/09/20 00:30:11;;;;;;;2.20;1.70;;;7.80;99.90;;;;;;5057253;28;20213;-91
2022/09/20 00:32:38;;;;;;;2.25;1.40;;;7.70;99.90;;;;;;5056644;28;20259;-91
2022/09/20 00:35:07;;;;;;;6.22;2.70;;;7.70;99.90;;;;;;5057519;28;20577;-92
2022/09/20 00:37:34;;;;;;;3.90;1.90;;;7.70;99.90;;;;;;5057220;28;20211;-92
2022/09/20 00:40:01;;;;;;;2.20;1.83;;;7.70;99.90;;;;;;5057149;28;20218;-92
2022/09/20 00:42:29;;;;;;;2.55;1.45;;;7.70;99.90;;;;;;5056124;28;20233;-92
2022/09/20 00:44:57;;;;;;;2.08;1.60;;;7.70;99.90;;;;;;5056267;28;20211;-92
2022/09/20 00:47:45;;;;;;;2.30;1.63;;;7.70;99.90;;;;;;5056140;28;20723;-92
2022/09/20 00:50:25;;;;;;;4.10;1.83;;;7.70;99.90;;;;;;5056428;28;20396;-93
2022/09/20 00:52:58;;;;;;;1.75;1.50;;;7.80;99.90;;;;;;5056729;28;20580;-92
2022/09/20 00:55:26;;;;;;;2.17;1.80;;;7.80;99.90;;;;;;5056749;28;20699;-92
2022/09/20 00:57:53;;;;;;;4.07;2.40;;;7.80;99.90;;;;;;5056922;28;20204;-92
2022/09/20 01:00:20;;;;;;;2.00;1.70;;;7.80;99.90;;;;;;5056509;28;20208;-91
2022/09/20 01:02:52;;;;;;;2.30;2.10;;;7.70;99.90;;;;;;5056773;28;20220;-91
2022/09/20 01:05:20;;;;;;;1.88;1.48;;;7.70;99.90;;;;;;5056166;28;20680;-92
2022/09/20 01:07:49;;;;;;;4.93;2.25;;;7.70;99.90;;;;;;5056938;28;20212;-92
2022/09/20 01:10:16;;;;;;;2.33;1.75;;;7.70;99.90;;;;;;5056105;28;20661;-92
2022/09/20 01:12:45;;;;;;;2.97;1.60;;;7.70;99.90;;;;;;5056429;28;20230;-91
2022/09/20 01:15:13;;;;;;;2.42;2.05;;;7.70;99.90;;;;;;5056610;28;20255;-91
2022/09/20 01:17:44;;;;;;;4.03;2.33;;;7.70;99.90;;;;;;5056115;28;20209;-92
2022/09/20 01:20:21;;;;;;;2.55;1.90;;;7.70;99.90;;;;;;5056492;28;20219;-92
2022/09/20 01:23:16;;;;;;;3.58;1.80;;;7.70;99.90;;;;;;5056280;28;20202;-92
2022/09/20 01:26:25;;;;;;;2.70;1.83;;;7.70;99.90;;;;;;5053091;28;20230;-92
2022/09/20 01:29:03;;;;;;;2.55;1.83;;;7.70;99.90;;;;;;5056314;28;20208;-92
2022/09/20 01:31:43;;;;;;;1.95;1.60;;;7.80;99.90;;;;;;5054402;28;20231;-93
2022/09/20 01:34:13;;;;;;;2.40;2.20;;;7.80;99.90;;;;;;5055902;28;20223;-92
2022/09/20 01:36:46;;;;;;;3.45;1.88;;;7.80;99.90;;;;;;5056314;28;20203;-91
2022/09/20 01:39:21;;;;;;;2.35;1.80;;;7.80;99.90;;;;;;5057606;28;20222;-93
2022/09/20 01:41:53;;;;;;;3.88;1.85;;;7.80;99.90;;;;;;5057685;28;20242;-93
2022/09/20 01:44:30;;;;;;;2.10;1.85;;;7.80;99.90;;;;;;5057981;28;20206;-92
2022/09/20 01:47:03;;;;;;;2.25;1.73;;;7.80;99.90;;;;;;5059190;28;20232;-91
2022/09/20 01:49:40;;;;;;;1.85;1.70;;;7.80;99.90;;;;;;5065210;28;20211;-92
2022/09/20 01:52:42;;;;;;;3.55;1.92;;;7.80;99.90;;;;;;5066640;28;20228;-92
2022/09/20 01:55:44;;;;;;;1.88;1.65;;;7.80;99.90;;;;;;5065660;28;20223;-92
2022/09/20 01:58:50;;;;;;;2.05;1.83;;;7.80;99.90;;;;;;5056466;28;20207;-92
2022/09/20 02:01:41;;;;;;;2.35;1.35;;;7.70;99.90;;;;;;5055472;28;20238;-92
2022/09/20 02:04:33;;;;;;;1.58;1.38;;;7.70;99.90;;;;;;5056371;28;20229;-92
2022/09/20 02:07:31;;;;;;;2.08;1.80;;;7.70;99.90;;;;;;5026551;28;20227;-92
2022/09/20 02:10:24;;;;;;;2.05;1.70;;;7.70;99.90;;;;;;5055073;28;20261;-91
2022/09/20 02:12:53;;;;;;;1.88;1.60;;;7.70;99.90;;;;;;5054996;28;20292;-92
2022/09/20 02:15:40;;;;;;;2.28;1.70;;;7.70;99.90;;;;;;5054925;28;20253;-92
2022/09/20 02:18:19;;;;;;;2.95;1.55;;;7.70;99.90;;;;;;5054907;28;20212;-91
2022/09/20 02:20:56;;;;;;;2.15;1.75;;;7.70;99.90;;;;;;5062073;22;20242;-65
2022/09/20 02:23:36;;;;;;;2.13;1.40;;;7.70;99.90;;;;;;5044098;28;20224;-65
2022/09/20 02:26:15;;;;;;;2.05;1.75;;;7.80;99.90;;;;;;5051687;28;20213;-65
2022/09/20 02:28:54;;;;;;;2.00;1.80;;;7.80;99.90;;;;;;5051969;28;20266;-66
2022/09/20 02:31:38;;;;;;;1.77;1.65;;;7.80;99.90;;;;;;5050954;28;20207;-65
2022/09/20 02:34:32;;;;;;;2.90;2.10;;;7.80;99.90;;;;;;5051829;28;20229;-65
2022/09/20 02:37:14;;;;;;;2.85;2.00;;;7.80;99.90;;;;;;5051689;28;20201;-65
2022/09/20 02:39:51;;;;;;;1.85;1.60;;;7.80;99.90;;;;;;5052325;28;20257;-65
2022/09/20 02:42:23;;;;;;;2.97;1.95;;;7.80;99.90;;;;;;5050438;28;20213;-65
2022/09/20 02:44:58;;;;;;;1.80;1.70;;;7.80;99.90;;;;;;5051663;28;20205;-65
2022/09/20 02:47:32;;;;;;;2.10;1.60;;;7.80;99.90;;;;;;5051502;28;20221;-65
2022/09/20 02:50:18;;;;;;;1.38;1.27;;;7.90;99.90;;;;;;5051571;28;20206;-65
2022/09/20 02:52:57;;;;;;;2.30;1.50;;;7.90;99.90;;;;;;5050815;28;20238;-64
2022/09/20 02:55:34;;;;;;;4.90;1.70;;;7.90;99.90;;;;;;5051487;28;20197;-65
2022/09/20 02:58:12;;;;;;;1.88;1.42;;;7.90;99.90;;;;;;5050959;28;20575;-65
2022/09/20 03:00:46;;;;;;;2.08;1.60;;;8.00;99.90;;;;;;5051408;28;20232;-65
2022/09/20 03:03:20;;;;;;;1.95;1.70;;;8.00;99.90;;;;;;5050305;28;20237;-64
2022/09/20 03:06:01;;;;;;;2.50;1.50;;;8.10;99.90;;;;;;5051423;28;20646;-65
2022/09/20 03:08:35;;;;;;;2.40;1.65;;;8.10;99.90;;;;;;5051213;28;20557;-65
2022/09/20 03:11:12;;;;;;;2.03;1.58;;;8.10;99.90;;;;;;5050821;28;20199;-65
2022/09/20 03:13:54;;;;;;;2.40;2.20;;;8.10;99.90;;;;;;5051098;28;20230;-64
2022/09/20 03:16:32;;;;;;;3.17;1.85;;;8.10;99.90;;;;;;5050893;28;20194;-65
2022/09/20 03:19:07;;;;;;;3.83;1.70;;;8.10;99.90;;;;;;5051030;28;20207;-65
2022/09/20 03:21:51;;;;;;;2.30;1.92;;;8.10;99.90;;;;;;5050228;28;20216;-65
2022/09/20 03:24:28;;;;;;;2.55;1.90;;;8.10;99.90;;;;;;5051005;28;20314;-65
2022/09/20 03:26:58;;;;;;;2.30;1.70;;;8.10;99.90;;;;;;5050554;28;20736;-65
2022/09/20 03:29:37;;;;;;;3.05;1.70;;;8.10;99.90;;;;;;5050821;28;20206;-65
2022/09/20 03:32:15;;;;;;;4.47;1.90;;;8.10;99.90;;;;;;5049973;28;20204;-65
2022/09/20 03:34:54;;;;;;;3.40;1.65;;;8.10;99.90;;;;;;5032353;28;20625;-65
2022/09/20 03:37:42;;;;;;;2.10;1.80;;;8.00;99.90;;;;;;5022859;28;21393;-65
2022/09/20 03:40:40;;;;;;;3.47;1.80;;;8.00;99.90;;;;;;5019567;28;20224;-65
2022/09/20 03:43:17;;;;;;;2.40;1.90;;;8.00;99.90;;;;;;5018436;28;20218;-65
2022/09/20 03:46:03;;;;;;;2.10;1.55;;;8.00;99.90;;;;;;5019273;28;20213;-65
2022/09/20 03:48:48;;;;;;;1.80;1.70;;;8.00;99.90;;;;;;5020125;28;20652;-65
2022/09/20 03:51:23;;;;;;;4.45;1.98;;;8.10;99.90;;;;;;5019784;28;20206;-64
2022/09/20 03:54:14;;;;;;;4.38;1.73;;;8.10;99.90;;;;;;5018960;28;20280;-64
2022/09/20 03:57:24;;;;;;;3.85;2.20;;;8.10;99.90;;;;;;5027762;28;20194;-64
2022/09/20 04:00:07;;;;;;;2.60;1.35;;;8.10;99.90;;;;;;5029371;28;20202;-65
2022/09/20 04:02:45;;;;;;;3.05;2.03;;;8.20;99.90;;;;;;5023323;28;20575;-67
2022/09/20 04:05:16;;;;;;;2.45;1.75;;;8.20;99.90;;;;;;5015988;28;20201;-66
2022/09/20 04:07:54;;;;;;;3.45;1.65;;;8.20;99.90;;;;;;5024087;28;20249;-66
2022/09/20 04:10:32;;;;;;;2.08;1.88;;;8.20;99.90;;;;;;5017379;28;20197;-64
2022/09/20 04:13:11;;;;;;;2.15;1.58;;;8.20;99.90;;;;;;5021788;28;20218;-65
2022/09/20 04:15:51;;;;;;;2.38;1.67;;;8.20;99.90;;;;;;5019922;28;20201;-65
2022/09/20 04:18:28;;;;;;;6.78;1.90;;;8.20;99.90;;;;;;5019429;28;20198;-64
2022/09/20 04:21:01;;;;;;;4.05;2.00;;;8.20;99.90;;;;;;5018950;28;20672;-64
2022/09/20 04:23:37;;;;;;;2.20;1.75;;;8.20;99.90;;;;;;5028462;28;20214;-65
2022/09/20 04:26:06;;;;;;;2.03;1.70;;;8.20;99.90;;;;;;5023835;28;20201;-64
2022/09/20 04:28:40;;;;;;;3.22;2.00;;;8.20;99.90;;;;;;5024720;28;20223;-64
2022/09/20 04:31:24;;;;;;;2.25;1.55;;;8.20;99.90;;;;;;5009291;28;20646;-64
2022/09/20 04:33:54;;;;;;;1.88;1.77;;;8.20;99.90;;;;;;5008962;28;20230;-64
2022/09/20 04:36:36;;;;;;;2.35;1.60;;;8.30;99.90;;;;;;5008975;28;20209;-65
2022/09/20 04:39:25;;;;;;;2.50;1.70;;;8.30;99.90;;;;;;5009277;28;20198;-64
2022/09/20 04:42:27;;;;;;;5.65;1.88;;;8.30;99.90;;;;;;5008637;28;20593;-64
2022/09/20 04:45:27;;;;;;;3.42;1.75;;;8.30;99.90;;;;;;5009089;28;20670;-64
2022/09/20 04:48:20;;;;;;;3.55;1.95;;;8.40;99.90;;;;;;5010675;28;20233;-64
2022/09/20 04:51:19;;;;;;;3.75;1.90;;;8.40;99.90;;;;;;5010311;28;20214;-64
2022/09/20 04:54:30;;;;;;;3.08;1.90;;;8.40;99.90;;;;;;5010344;28;20712;-65
2022/09/20 04:57:20;;;;;;;2.03;1.80;;;8.40;99.90;;;;;;4987977;28;20207;-64
2022/09/20 05:00:02;;;;;;;2.85;1.70;;;8.40;99.90;;;;;;5010573;28;20212;-65
2022/09/20 05:03:10;;;;;;;2.38;1.92;;;8.40;99.90;;;;;;5009530;28;20445;-65
2022/09/20 05:05:56;;;;;;;5.03;2.38;;;8.50;99.90;;;;;;5012132;28;20216;-64
2022/09/20 05:09:00;;;;;;;5.05;2.35;;;8.50;99.90;;;;;;5013464;28;20225;-64
2022/09/20 05:11:57;;;;;;;2.65;2.20;;;8.50;99.90;;;;;;5013867;28;20461;-64
2022/09/20 05:14:54;;;;;;;2.00;1.80;;;8.50;99.90;;;;;;5005968;28;20230;-64
2022/09/20 05:17:30;;;;;;;4.40;2.72;;;8.50;99.90;;;;;;5013692;28;20257;-64
2022/09/20 05:20:20;;;;;;;3.47;2.10;;;8.50;99.90;;;;;;5013906;28;20699;-64
2022/09/20 05:23:22;;;;;;;3.58;1.77;;;8.50;99.90;;;;;;5012961;28;20252;-64
2022/09/20 05:26:07;;;;;;;2.97;1.98;;;8.50;99.90;;;;;;5013600;28;20209;-64
2022/09/20 05:28:40;;;;;;;4.40;2.35;;;8.50;99.90;;;;;;5013191;28;20257;-64
2022/09/20 05:31:15;;;;;;;2.22;2.03;;;8.60;99.90;;;;;;5014110;28;20210;-64
2022/09/20 05:33:48;;;;;;;6.53;2.55;;;8.60;99.90;;;;;;5013412;28;20224;-65
2022/09/20 05:36:23;;;;;;;2.40;2.20;;;8.60;99.90;;;;;;5013668;28;20584;-64
2022/09/20 05:38:55;;;;;;;3.78;2.20;;;8.60;99.90;;;;;;5013386;28;20198;-64
2022/09/20 05:41:31;;;;;;;2.25;2.05;;;8.60;99.90;;;;;;5012321;28;20212;-63
2022/09/20 05:44:08;;;;;;;4.35;2.28;;;8.60;99.90;;;;;;5013338;28;20225;-65
2022/09/20 05:46:45;;;;;;;3.15;2.25;;;8.60;99.90;;;;;;5012766;28;20512;-65
2022/09/20 05:49:20;;;;;;;6.38;2.15;;;8.60;99.90;;;;;;5013181;28;20721;-64
2022/09/20 05:52:03;;;;;;;3.08;2.85;;;8.60;99.90;;;;;;5012336;28;20210;-64
2022/09/20 05:55:08;;;;;;;3.60;1.85;;;8.60;99.90;;;;;;5012759;28;20223;-64
2022/09/20 05:57:46;;;;;;;1.90;1.65;;;8.70;99.90;;;;;;5012629;28;20204;-64
2022/09/20 06:00:16;;;;;;;2.67;2.05;;;8.70;99.90;;;;;;5013000;28;20217;-64
2022/09/20 06:02:53;;;;;;;3.17;2.08;;;8.70;99.90;;;;;;5199243;23;20304;-69
2022/09/20 06:05:33;;;;;;;4.80;2.38;;;8.80;99.90;;;;;;5044790;28;20290;-69
2022/09/20 06:08:23;;;;;;;4.80;2.72;;;8.80;99.90;;;;;;5052476;28;20248;-69
2022/09/20 06:11:03;;;;;;;2.22;2.03;;;8.90;99.90;;;;;;5052593;28;20212;-69
2022/09/20 06:13:42;;;;;;;3.03;2.30;;;8.90;99.90;;;;;;5051539;28;20664;-69
2022/09/20 06:16:16;;;;;;;3.85;2.20;;;9.00;99.90;;;;;;5051956;28;20208;-69
2022/09/20 06:18:57;;;;;;;4.07;2.85;;;9.00;99.90;;;;;;5052298;28;20211;-69
2022/09/20 06:21:33;;;;;;;4.25;2.58;;;9.00;99.90;;;;;;5051578;28;20212;-69
2022/09/20 06:24:01;;;;;;;3.90;2.17;;;9.10;99.90;;;;;;5051886;28;20733;-69
2022/09/20 06:26:35;;;;;;;3.08;2.65;;;9.10;99.90;;;;;;5051196;28;20204;-69
2022/09/20 06:29:05;;;;;;;2.13;1.92;;;9.10;99.90;;;;;;5051917;28;20229;-69
2022/09/20 06:31:32;;;;;;;2.10;2.00;;;9.20;99.90;;;;;;5051453;28;20211;-69
2022/09/20 06:34:05;;;;;;;2.28;2.08;;;9.20;99.90;;;;;;5052068;28;20269;-69
2022/09/20 06:42:32;;;;;;;4.88;2.03;;;9.50;99.90;;;;;;4989568;28;20201;-69
2022/09/20 06:44:59;;;;;;;2.67;1.88;;;9.50;99.90;;;;;;5036916;28;20627;-69
2022/09/20 06:47:26;;;;;;;3.35;2.63;;;9.50;99.90;;;;;;5051598;28;20231;-69
2022/09/20 06:49:54;;;;;;;8.00;3.20;;;9.60;99.90;;;;;;5052001;28;20672;-69
2022/09/20 06:52:22;;;;;;;2.10;1.90;;;9.60;99.90;;;;;;5051002;28;20204;-69
2022/09/20 06:54:53;;;;;;;3.75;2.20;;;9.60;99.90;;;;;;5051745;28;20235;-69
2022/09/20 06:57:24;;;;;;;5.00;2.33;;;9.60;99.90;;;;;;5051599;28;20218;-69
2022/09/20 06:59:50;;;;;;;3.75;2.40;;;9.60;99.90;;;;;;5051709;28;20206;-69
2022/09/20 07:02:17;;;;;;;3.88;1.75;;;9.70;99.90;;;;;;5050702;28;20212;-69
2022/09/20 07:04:44;;;;;;;4.18;2.20;;;9.70;99.90;;;;;;5050664;28;20234;-69
2022/09/20 07:07:17;;;;;;;2.33;2.13;;;9.70;99.90;;;;;;5050687;28;20205;-68
2022/09/20 07:09:44;;;;;;;8.35;2.35;;;9.70;99.90;;;;;;5050770;28;20220;-69
2022/09/20 07:12:11;;;;;;;5.28;2.67;;;9.80;99.90;;;;;;5050166;28;20704;-69
2022/09/20 07:14:37;;;;;;;2.10;1.90;;;9.80;99.90;;;;;;5050425;28;20232;-68
2022/09/20 07:17:05;;;;;;;2.53;2.28;;;9.90;99.90;;;;;;5050570;28;20213;-69
2022/09/20 07:19:32;;;;;;;4.65;2.80;;;10.00;99.90;;;;;;5050527;28;20204;-68
2022/09/20 07:21:59;;;;;;;4.47;2.78;;;10.10;99.90;;;;;;5049706;28;20258;-68
2022/09/20 07:24:28;;;;;;;3.28;2.22;;;10.20;99.90;;;;;;5050204;28;20225;-68
2022/09/20 07:26:56;;;;;;;4.55;2.70;;;10.30;99.90;;;;;;5050388;28;20198;-68
2022/09/20 07:29:24;;;;;;;7.20;3.00;;;10.40;99.90;;;;;;5048961;28;20225;-68
2022/09/20 07:31:50;;;;;;;2.70;2.50;;;10.40;99.90;;;;;;5049942;28;20198;-69
2022/09/20 07:34:19;;;;;;;4.65;3.03;;;10.50;99.90;;;;;;5050192;28;20222;-68
2022/09/20 07:36:46;;;;;;;4.00;2.90;;;10.70;99.90;;;;;;5050130;28;20202;-68
2022/09/20 07:39:12;;;;;;;4.53;2.78;;;10.80;99.90;;;;;;5050314;28;20201;-69
2022/09/20 07:41:40;;;;;;;5.43;2.60;;;10.90;99.90;;;;;;5049694;28;20212;-69
2022/09/20 07:44:20;;;;;;;2.97;1.92;;;11.00;99.90;;;;;;5050026;28;20232;-69
2022/09/20 07:46:48;;;;;;;3.80;2.30;;;11.10;99.90;;;;;;5050321;28;20205;-68
2022/09/20 07:49:14;;;;;;;6.38;2.50;;;11.10;99.90;;;;;;5049742;28;20226;-68
2022/09/20 07:51:41;;;;;;;3.67;2.55;;;11.10;99.90;;;;;;5049811;28;20205;-70
2022/09/20 07:54:08;;;;;;;2.08;1.90;;;10.90;99.90;;;;;;5050115;28;20248;-68
2022/09/20 07:56:35;;;;;;;5.60;1.67;;;11.00;99.90;;;;;;5049907;28;20202;-68
2022/09/20 07:59:03;;;;;;;2.45;1.75;;;11.00;99.90;;;;;;5049745;28;20233;-69
2022/09/20 08:03:50;;;;;;;3.38;1.80;;;11.00;99.90;;;;;;5076299;27;20952;-67
2022/09/20 08:06:20;;;;;;;3.35;2.33;;;11.30;99.90;;;;;;5048009;28;20230;-67
2022/09/20 08:08:47;;;;;;;2.38;2.13;;;11.60;99.90;;;;;;5048198;28;20607;-67
2022/09/20 08:11:16;;;;;;;3.47;2.00;;;11.70;99.90;;;;;;5047440;28;20209;-67
2022/09/20 08:13:45;;;;;;;3.35;2.10;;;11.80;99.90;;;;;;5048087;28;20689;-68
2022/09/20 08:16:13;;;;;;;4.50;1.85;;;11.80;99.90;;;;;;5048077;28;20217;-68
2022/09/20 08:18:40;;;;;;;3.40;1.77;;;11.80;99.90;;;;;;5048154;28;20229;-68
2022/09/20 08:21:10;;;;;;;3.47;2.20;;;11.70;99.90;;;;;;5047764;28;20206;-67
2022/09/20 08:23:37;;;;;;;3.72;1.40;;;11.70;99.90;;;;;;5047454;28;20279;-67
2022/09/20 08:26:05;;;;;;;3.65;1.55;;;11.60;99.90;;;;;;5048021;28;20638;-67
2022/09/20 08:28:32;;;;;;;2.22;1.45;;;11.50;99.90;;;;;;5047649;28;20617;-67
2022/09/20 08:31:03;;;;;;;1.80;1.60;;;11.40;99.90;;;;;;5047825;28;20205;-67
2022/09/20 08:33:30;;;;;;;1.50;1.40;;;11.40;99.90;;;;;;5046882;28;20213;-67
2022/09/20 08:35:57;;;;;;;8.90;2.22;;;11.40;99.90;;;;;;5047747;28;20213;-68
2022/09/20 08:38:26;;;;;;;3.58;2.63;;;11.60;99.90;;;;;;5047316;28;20213;-67
2022/09/20 08:40:56;;;;;;;5.82;1.95;;;11.80;99.90;;;;;;5047835;28;20198;-67
2022/09/20 08:43:27;;;;;;;3.15;1.85;;;12.10;99.90;;;;;;5046586;28;20227;-67
2022/09/20 08:45:54;;;;;;;4.20;1.77;;;12.20;99.90;;;;;;5047623;28;20205;-68
2022/09/20 08:48:26;;;;;;;2.65;1.20;;;12.30;99.90;;;;;;5047222;28;20206;-67
2022/09/20 08:50:53;;;;;;;2.80;1.50;;;12.40;99.90;;;;;;5047358;28;20198;-68
2022/09/20 08:53:19;;;;;;;5.23;1.70;;;12.60;99.90;;;;;;5046698;28;20213;-67
2022/09/20 08:55:48;;;;;;;2.93;1.43;;;12.80;99.90;;;;;;5047104;28;21071;-67
2022/09/20 08:58:15;;;;;;;2.42;1.48;;;12.90;99.90;;;;;;5047313;28;20970;-68
2022/09/20 09:00:46;;;;;;;4.80;1.55;;;12.80;99.90;;;;;;5047089;28;20300;-67
2022/09/20 09:03:15;;;;;;;4.18;1.73;;;12.70;99.90;;;;;;5046336;28;20228;-67
2022/09/20 09:05:45;;;;;;;1.70;1.30;;;12.50;99.90;;;;;;5046830;28;20198;-67
2022/09/20 09:08:15;;;;;;;2.13;1.48;;;12.50;99.90;;;;;;5047187;28;20240;-67
2022/09/20 09:10:44;;;;;;;4.28;1.42;;;12.50;99.90;;;;;;5046800;28;20213;-67
2022/09/20 09:13:22;;;;;;;5.13;1.38;;;12.40;99.90;;;;;;5044410;28;20228;-67
2022/09/20 09:15:54;;;;;;;2.93;1.10;;;12.30;99.90;;;;;;5033782;28;20202;-68
2022/09/20 09:18:21;;;;;;;3.30;1.42;;;12.30;99.90;;;;;;5033167;28;20488;-67
2022/09/20 09:20:48;;;;;;;1.23;1.10;;;12.40;99.90;;;;;;5033670;28;20225;-67
2022/09/20 09:23:24;;;;;;;1.50;1.40;;;12.40;99.90;;;;;;5032666;28;20485;-68
2022/09/20 09:25:52;;;;;;;2.45;1.55;;;12.50;99.90;;;;;;5033785;28;20237;-67
2022/09/20 09:28:24;;;;;;;4.73;1.90;;;12.40;99.90;;;;;;5033082;28;20206;-68
2022/09/20 09:30:50;;;;;;;2.83;1.50;;;12.40;99.90;;;;;;5033564;28;20823;-67
2022/09/20 09:33:24;;;;;;;4.93;2.00;;;12.30;99.90;;;;;;5032531;28;20473;-67
2022/09/20 09:35:59;;;;;;;2.57;1.57;;;12.40;99.90;;;;;;5033261;28;20465;-68
2022/09/20 09:38:30;;;;;;;3.73;1.70;;;12.70;99.90;;;;;;5032977;28;20464;-68
2022/09/20 09:40:58;;;;;;;1.85;1.42;;;13.10;99.90;;;;;;5033316;28;20468;-68
2022/09/20 09:43:32;;;;;;;2.30;1.37;;;13.50;99.90;;;;;;5032386;28;20226;-68
2022/09/20 09:46:17;;;;;;;1.80;1.33;;;13.90;99.90;;;;;;5033007;28;20471;-68
2022/09/20 09:48:48;;;;;;;3.57;2.30;;;14.30;99.90;;;;;;5033319;28;20815;-68
2022/09/20 09:51:17;;;;;;;2.00;1.20;;;14.70;99.90;;;;;;5032334;28;20940;-67
2022/09/20 09:53:45;;;;;;;5.97;1.63;;;15.00;99.90;;;;;;5032975;28;20477;-67
2022/09/20 09:56:25;;;;;;;1.80;1.33;;;15.20;99.90;;;;;;5032838;28;20844;-67
2022/09/20 09:59:29;;;;;;;2.50;1.40;;;15.30;99.90;;;;;;5033024;28;20457;-67
2022/09/20 10:02:11;;;;;;;4.03;1.33;;;15.40;99.90;;;;;;5007656;28;20468;-67
2022/09/20 10:04:45;;;;;;;2.43;1.80;;;14.90;99.90;;;;;;5032485;28;20518;-67
2022/09/20 10:07:18;;;;;;;2.50;1.77;;;14.40;99.90;;;;;;5032818;28;20468;-67
2022/09/20 10:10:00;;;;;;;1.30;1.20;;;14.20;99.90;;;;;;5032781;28;20457;-67
2022/09/20 10:12:41;;;;;;;3.57;1.73;;;13.80;99.90;;;;;;5031835;28;20519;-67
2022/09/20 10:15:24;;;;;;;3.30;1.17;;;13.50;99.90;;;;;;5032741;28;20457;-67
2022/09/20 10:17:59;;;;;;;4.37;1.70;;;13.30;99.90;;;;;;5032389;28;20547;-69
2022/09/20 10:20:37;;;;;;;1.37;1.20;;;13.10;99.90;;;;;;5032344;28;20471;-69
2022/09/20 10:23:19;;;;;;;2.80;1.20;;;13.10;99.90;;;;;;5031621;28;20492;-69
2022/09/20 10:25:56;;;;;;;3.83;1.53;;;13.00;99.90;;;;;;5031479;28;20472;-69
2022/09/20 10:28:47;;;;;;;3.23;1.87;;;13.00;99.90;;;;;;5032157;28;20552;-68
2022/09/20 10:31:26;;;;;;;3.17;1.50;;;13.10;99.90;;;;;;5032163;28;20898;-68
2022/09/20 10:34:08;;;;;;;3.87;1.40;;;13.10;99.90;;;;;;5032254;28;20866;-68
2022/09/20 10:36:45;;;;;;;5.30;1.77;;;13.00;99.90;;;;;;5032079;28;20464;-69
2022/09/20 10:39:19;;;;;;;2.33;1.80;;;13.00;99.90;;;;;;5032492;28;20468;-68
2022/09/20 10:44:55;;;;;;;5.37;1.97;;;12.90;99.90;;;;;;5031896;28;20997;-68
2022/09/20 10:47:30;;;;;;;2.30;1.40;;;12.90;99.90;;;;;;5031599;28;20519;-69
2022/09/20 10:50:07;;;;;;;3.77;1.47;;;13.00;99.90;;;;;;5031927;28;20467;-69
2022/09/20 10:52:58;;;;;;;1.87;1.10;;;13.00;99.90;;;;;;5031135;28;20492;-69
2022/09/20 10:55:44;;;;;;;3.55;1.45;;;13.00;99.90;;;;;;5031754;28;20456;-68
2022/09/20 10:58:34;;;;;;;4.07;1.73;;;13.20;99.90;;;;;;5031668;28;20202;-69
2022/09/20 11:01:10;;;;;;;3.97;1.70;;;13.30;99.90;;;;;;5031771;28;20460;-68
2022/09/20 11:04:02;;;;;;;2.17;1.37;;;13.30;99.90;;;;;;5030894;28;20504;-69
2022/09/20 11:06:42;;;;;;;2.10;1.30;;;13.20;99.90;;;;;;5031524;28;20461;-69
2022/09/20 11:09:12;;;;;;;1.93;1.23;;;13.10;99.90;;;;;;5031337;28;20468;-69
2022/09/20 11:11:43;;;;;;;3.60;1.50;;;13.10;99.90;;;;;;5031003;28;20468;-69
2022/09/20 11:14:15;;;;;;;1.60;1.17;;;13.10;99.90;;;;;;5031302;28;20488;-69
2022/09/20 11:16:48;;;;;;;2.30;1.30;;;13.20;99.90;;;;;;5031363;28;20991;-69
2022/09/20 11:19:23;;;;;;;4.17;1.47;;;13.30;99.90;;;;;;5031251;28;20795;-68
2022/09/20 11:21:57;;;;;;;2.80;1.40;;;13.60;99.90;;;;;;5031070;28;20502;-69
2022/09/20 11:24:31;;;;;;;1.60;1.50;;;14.20;99.90;;;;;;5030912;28;20580;-68
2022/09/20 11:27:02;;;;;;;2.23;1.03;;;14.70;99.90;;;;;;5031266;28;20960;-69
2022/09/20 11:29:34;;;;;;;2.37;1.80;;;15.20;99.90;;;;;;5031086;28;20469;-68
2022/09/20 11:32:07;;;;;;;3.73;1.70;;;15.50;99.90;;;;;;5030549;28;20497;-68
2022/09/20 11:34:40;;;;;;;2.00;1.40;;;15.90;99.90;;;;;;5031021;28;21350;-68
2022/09/20 11:37:08;;;;;;;2.70;1.47;;;16.20;99.90;;;;;;5030804;28;20469;-68
2022/09/20 11:39:39;;;;;;;3.10;1.50;;;16.30;99.90;;;;;;5031322;28;20465;-68
2022/09/20 11:42:13;;;;;;;2.10;1.40;;;16.30;99.90;;;;;;5030771;28;20921;-68
2022/09/20 11:44:42;;;;;;;3.10;1.30;;;16.30;99.90;;;;;;5031088;28;20976;-68
2022/09/20 11:47:17;;;;;;;1.63;1.30;;;16.40;99.90;;;;;;5031042;28;20460;-68
2022/09/20 11:49:59;;;;;;;4.17;1.60;;;16.40;99.90;;;;;;5030937;28;20467;-68
2022/09/20 11:52:40;;;;;;;1.73;1.33;;;16.30;99.90;;;;;;5030067;28;20463;-68
2022/09/20 11:55:22;;;;;;;3.10;1.73;;;15.90;99.90;;;;;;5031136;28;20842;-68
2022/09/20 11:58:00;;;;;;;3.00;1.20;;;15.50;99.90;;;;;;5030827;28;20464;-68
2022/09/20 12:00:30;;;;;;;2.33;1.33;;;15.00;99.90;;;;;;5030903;28;20540;-69
2022/09/20 12:05:31;;;;;;;1.67;1.40;;;14.20;99.90;;;;;;5024565;28;20557;-65
2022/09/20 12:07:59;;;;;;;2.13;1.47;;;14.00;99.90;;;;;;5010735;28;20512;-65
2022/09/20 12:10:29;;;;;;;1.50;1.23;;;13.80;99.90;;;;;;5010639;28;20972;-65
2022/09/20 12:12:58;;;;;;;1.63;1.40;;;13.80;99.90;;;;;;5010098;28;20466;-65
2022/09/20 12:15:27;;;;;;;2.00;1.43;;;14.00;99.90;;;;;;5010554;28;20581;-65
2022/09/20 12:18:27;;;;;;;1.60;1.20;;;14.40;99.90;;;;;;5010592;28;20461;-64
2022/09/20 12:21:10;;;;;;;2.37;1.23;;;14.80;99.90;;;;;;5010397;28;20815;-65
2022/09/20 12:24:18;;;;;;;1.80;1.53;;;15.00;99.90;;;;;;5010562;28;21075;-65
2022/09/20 12:26:47;;;;;;;1.90;1.47;;;15.20;99.90;;;;;;5010088;28;20457;-65
2022/09/20 12:29:53;;;;;;;2.00;1.63;;;15.50;99.90;;;;;;5010613;28;20470;-65
2022/09/20 12:32:45;;;;;;;3.80;1.43;;;16.00;99.90;;;;;;4998655;28;20830;-65
2022/09/20 12:35:54;;;;;;;2.00;1.70;;;16.20;99.90;;;;;;5010667;28;20464;-65
2022/09/20 12:38:34;;;;;;;1.83;1.67;;;16.30;99.90;;;;;;5010322;28;20469;-65
2022/09/20 12:41:13;;;;;;;1.93;1.60;;;16.20;99.90;;;;;;5010736;28;20557;-65
2022/09/20 12:44:05;;;;;;;1.97;1.27;;;16.00;99.90;;;;;;5010351;28;20521;-65
2022/09/20 12:46:40;;;;;;;2.50;1.60;;;15.80;99.90;;;;;;5010503;28;20465;-65
2022/09/20 12:55:24;;;;;;;2.13;1.50;;;16.00;99.90;;;;;;5014203;28;20432;-65
2022/09/20 12:57:53;;;;;;;2.70;1.70;;;16.30;99.90;;;;;;5014446;28;20839;-65
2022/09/20 13:00:35;;;;;;;1.40;1.30;;;16.50;99.90;;;;;;5013703;28;20453;-66
2022/09/20 13:03:11;;;;;;;1.77;1.53;;;16.70;99.90;;;;;;5013386;28;20481;-64
2022/09/20 13:05:39;;;;;;;3.80;1.73;;;16.90;99.90;;;;;;5013634;28;20461;-65
2022/09/20 13:08:14;;;;;;;2.53;1.60;;;17.10;99.90;;;;;;5013973;28;20465;-65
2022/09/20 13:10:48;;;;;;;5.80;1.77;;;17.30;99.90;;;;;;5013455;28;20484;-64
2022/09/20 13:13:33;;;;;;;2.63;1.63;;;17.40;99.90;;;;;;5013312;28;20481;-65
2022/09/20 13:16:04;;;;;;;2.80;1.30;;;17.40;99.90;;;;;;5013713;28;20458;-65
2022/09/20 13:18:31;;;;;;;1.50;1.37;;;17.50;99.90;;;;;;5013592;28;20509;-65
2022/09/20 13:21:05;;;;;;;2.50;1.33;;;17.40;99.90;;;;;;5013562;28;20465;-64
2022/09/20 13:23:42;;;;;;;4.93;1.80;;;17.00;99.90;;;;;;5013000;28;20517;-65
2022/09/20 13:26:12;;;;;;;1.50;1.17;;;16.50;99.90;;;;;;5013769;28;20477;-65
2022/09/20 13:28:46;;;;;;;1.50;1.40;;;16.30;99.90;;;;;;5013004;28;20462;-65
2022/09/20 13:31:23;;;;;;;1.80;1.60;;;16.00;99.90;;;;;;5013101;28;20839;-64
2022/09/20 13:33:50;;;;;;;1.70;1.60;;;15.80;99.90;;;;;;5013121;28;20517;-65
2022/09/20 13:36:24;;;;;;;3.33;1.77;;;15.70;99.90;;;;;;5013479;28;20469;-65
2022/09/20 13:38:52;;;;;;;4.57;1.70;;;15.50;99.90;;;;;;5013117;28;20500;-65
2022/09/20 13:41:21;;;;;;;4.20;2.90;;;15.40;99.90;;;;;;5012752;28;20466;-65
2022/09/20 13:43:50;;;;;;;2.77;1.70;;;15.30;99.90;;;;;;5012563;28;20496;-65
2022/09/20 13:46:22;;;;;;;1.70;1.60;;;15.10;99.90;;;;;;5013433;28;20457;-65
2022/09/20 13:48:54;;;;;;;3.60;1.90;;;15.00;99.90;;;;;;5013180;28;20470;-65
2022/09/20 13:51:25;;;;;;;1.60;1.50;;;15.00;99.90;;;;;;5012621;28;20466;-65
2022/09/20 13:53:52;;;;;;;5.43;1.80;;;14.90;99.90;;;;;;5012917;28;20477;-65
2022/09/20 13:56:22;;;;;;;2.70;1.50;;;14.90;99.90;;;;;;5012846;28;20465;-65
2022/09/20 13:58:51;;;;;;;3.07;1.80;;;14.80;99.90;;;;;;5012835;28;20472;-65